sensor_id;sensor_type;location;lat;lon;timestamp;P1;P2;P0
63305;PMS5003;50735;52.060;1.248;2024-03-08T00:02:19;66;55;
63305;PMS5003;50735;52.060;1.248;2024-03-08T00:04:51;76;54;
63305;PMS5003;50735;52.060;1.248;2024-03-08T00:07:23;68;62;
63305;PMS5003;50735;52.060;1.248;2024-03-08T00:09:55;77;58;
63305;PMS5003;50735;52.060;1.248;2024-03-08T00:12:27;76;54;
63305;PMS5003;50735;52.060;1.248;2024-03-08T00:14:59;68;51;
63305;PMS5003;50735;52.060;1.248;2024-03-08T00:17:30;76;55;
63305;PMS5003;50735;52.060;1.248;2024-03-08T00:20:02;69;58;
63305;PMS5003;50735;52.060;1.248;2024-03-08T00:22:34;73;62;
63305;PMS5003;50735;52.060;1.248;2024-03-08T00:25:06;73;55;
63305;PMS5003;50735;52.060;1.248;2024-03-08T00:27:39;67;52;
63305;PMS5003;50735;52.060;1.248;2024-03-08T00:30:11;68;55;
63305;PMS5003;50735;52.060;1.248;2024-03-08T00:32:43;71;53;
63305;PMS5003;50735;52.060;1.248;2024-03-08T00:35:15;69;51;
63305;PMS5003;50735;52.060;1.248;2024-03-08T00:37:48;76;55;
63305;PMS5003;50735;52.060;1.248;2024-03-08T00:40:20;82;57;
63305;PMS5003;50735;52.060;1.248;2024-03-08T00:42:51;70;52;
63305;PMS5003;50735;52.060;1.248;2024-03-08T00:45:24;73;56;
63305;PMS5003;50735;52.060;1.248;2024-03-08T00:47:56;64;55;
63305;PMS5003;50735;52.060;1.248;2024-03-08T00:50:28;75;52;
63305;PMS5003;50735;52.060;1.248;2024-03-08T00:52:59;66;56;
63305;PMS5003;50735;52.060;1.248;2024-03-08T00:55:31;82;61;
63305;PMS5003;50735;52.060;1.248;2024-03-08T00:58:03;68;53;
63305;PMS5003;50735;52.060;1.248;2024-03-08T01:00:35;74;55;
63305;PMS5003;50735;52.060;1.248;2024-03-08T01:03:07;77;56;
63305;PMS5003;50735;52.060;1.248;2024-03-08T01:05:39;78;61;
63305;PMS5003;50735;52.060;1.248;2024-03-08T01:08:11;68;57;
63305;PMS5003;50735;52.060;1.248;2024-03-08T01:10:42;71;52;
63305;PMS5003;50735;52.060;1.248;2024-03-08T01:13:14;74;55;
63305;PMS5003;50735;52.060;1.248;2024-03-08T01:15:46;81;61;
63305;PMS5003;50735;52.060;1.248;2024-03-08T01:18:19;73;54;
63305;PMS5003;50735;52.060;1.248;2024-03-08T01:20:51;76;56;
63305;PMS5003;50735;52.060;1.248;2024-03-08T01:23:23;81;59;
63305;PMS5003;50735;52.060;1.248;2024-03-08T01:25:55;73;55;
63305;PMS5003;50735;52.060;1.248;2024-03-08T01:28:27;80;60;
63305;PMS5003;50735;52.060;1.248;2024-03-08T01:30:59;82;59;
63305;PMS5003;50735;52.060;1.248;2024-03-08T01:33:30;76;57;
63305;PMS5003;50735;52.060;1.248;2024-03-08T01:36:02;84;59;
63305;PMS5003;50735;52.060;1.248;2024-03-08T01:38:34;71;55;
63305;PMS5003;50735;52.060;1.248;2024-03-08T01:41:06;79;54;
63305;PMS5003;50735;52.060;1.248;2024-03-08T01:43:38;69;55;
63305;PMS5003;50735;52.060;1.248;2024-03-08T01:46:10;77;62;
63305;PMS5003;50735;52.060;1.248;2024-03-08T01:48:43;85;60;
63305;PMS5003;50735;52.060;1.248;2024-03-08T01:51:15;63;54;
63305;PMS5003;50735;52.060;1.248;2024-03-08T01:53:47;73;55;
63305;PMS5003;50735;52.060;1.248;2024-03-08T01:56:20;70;59;
63305;PMS5003;50735;52.060;1.248;2024-03-08T01:58:52;88;61;
63305;PMS5003;50735;52.060;1.248;2024-03-08T02:01:24;76;54;
63305;PMS5003;50735;52.060;1.248;2024-03-08T02:03:57;87;61;
63305;PMS5003;50735;52.060;1.248;2024-03-08T02:06:29;67;56;
63305;PMS5003;50735;52.060;1.248;2024-03-08T02:09:01;69;56;
63305;PMS5003;50735;52.060;1.248;2024-03-08T02:11:33;68;59;
63305;PMS5003;50735;52.060;1.248;2024-03-08T02:14:06;76;60;
63305;PMS5003;50735;52.060;1.248;2024-03-08T02:16:38;71;58;
63305;PMS5003;50735;52.060;1.248;2024-03-08T02:19:09;82;60;
63305;PMS5003;50735;52.060;1.248;2024-03-08T02:21:41;84;54;
63305;PMS5003;50735;52.060;1.248;2024-03-08T02:24:13;76;55;
63305;PMS5003;50735;52.060;1.248;2024-03-08T02:26:46;86;63;
63305;PMS5003;50735;52.060;1.248;2024-03-08T02:29:17;80;60;
63305;PMS5003;50735;52.060;1.248;2024-03-08T02:31:50;92;63;
63305;PMS5003;50735;52.060;1.248;2024-03-08T02:34:22;78;56;
63305;PMS5003;50735;52.060;1.248;2024-03-08T02:36:54;66;56;
63305;PMS5003;50735;52.060;1.248;2024-03-08T02:39:27;75;55;
63305;PMS5003;50735;52.060;1.248;2024-03-08T02:41:59;83;59;
63305;PMS5003;50735;52.060;1.248;2024-03-08T02:44:30;74;54;
63305;PMS5003;50735;52.060;1.248;2024-03-08T02:47:03;89;61;
63305;PMS5003;50735;52.060;1.248;2024-03-08T02:49:35;68;57;
63305;PMS5003;50735;52.060;1.248;2024-03-08T02:52:07;84;57;
63305;PMS5003;50735;52.060;1.248;2024-03-08T02:54:39;87;60;
63305;PMS5003;50735;52.060;1.248;2024-03-08T02:57:11;81;56;
63305;PMS5003;50735;52.060;1.248;2024-03-08T02:59:43;81;61;
63305;PMS5003;50735;52.060;1.248;2024-03-08T03:02:15;72;54;
63305;PMS5003;50735;52.060;1.248;2024-03-08T03:04:47;81;56;
63305;PMS5003;50735;52.060;1.248;2024-03-08T03:07:18;86;61;
63305;PMS5003;50735;52.060;1.248;2024-03-08T03:09:51;84;56;
63305;PMS5003;50735;52.060;1.248;2024-03-08T03:12:23;69;57;
63305;PMS5003;50735;52.060;1.248;2024-03-08T03:14:54;75;58;
63305;PMS5003;50735;52.060;1.248;2024-03-08T03:17:26;76;58;
63305;PMS5003;50735;52.060;1.248;2024-03-08T03:19:59;76;56;
63305;PMS5003;50735;52.060;1.248;2024-03-08T03:22:30;97;57;
63305;PMS5003;50735;52.060;1.248;2024-03-08T03:25:02;84;58;
63305;PMS5003;50735;52.060;1.248;2024-03-08T03:27:34;76;56;
63305;PMS5003;50735;52.060;1.248;2024-03-08T03:30:07;65;60;
63305;PMS5003;50735;52.060;1.248;2024-03-08T03:32:40;80;62;
63305;PMS5003;50735;52.060;1.248;2024-03-08T03:35:12;85;60;
63305;PMS5003;50735;52.060;1.248;2024-03-08T03:37:44;81;59;
63305;PMS5003;50735;52.060;1.248;2024-03-08T03:40:16;80;53;
63305;PMS5003;50735;52.060;1.248;2024-03-08T03:42:48;79;55;
63305;PMS5003;50735;52.060;1.248;2024-03-08T03:45:20;83;58;
63305;PMS5003;50735;52.060;1.248;2024-03-08T03:47:52;74;51;
63305;PMS5003;50735;52.060;1.248;2024-03-08T03:50:25;79;55;
63305;PMS5003;50735;52.060;1.248;2024-03-08T03:52:57;75;58;
63305;PMS5003;50735;52.060;1.248;2024-03-08T03:55:29;77;61;
63305;PMS5003;50735;52.060;1.248;2024-03-08T03:58:00;90;55;
63305;PMS5003;50735;52.060;1.248;2024-03-08T04:00:33;83;57;
63305;PMS5003;50735;52.060;1.248;2024-03-08T04:03:04;81;58;
63305;PMS5003;50735;52.060;1.248;2024-03-08T04:05:36;77;55;
63305;PMS5003;50735;52.060;1.248;2024-03-08T04:08:08;64;57;
63305;PMS5003;50735;52.060;1.248;2024-03-08T04:10:39;70;58;
63305;PMS5003;50735;52.060;1.248;2024-03-08T04:13:11;81;60;
63305;PMS5003;50735;52.060;1.248;2024-03-08T04:15:43;74;58;
63305;PMS5003;50735;52.060;1.248;2024-03-08T04:18:15;79;55;
63305;PMS5003;50735;52.060;1.248;2024-03-08T04:20:48;71;56;
63305;PMS5003;50735;52.060;1.248;2024-03-08T04:23:20;71;61;
63305;PMS5003;50735;52.060;1.248;2024-03-08T04:25:51;86;58;
63305;PMS5003;50735;52.060;1.248;2024-03-08T04:28:24;74;55;
63305;PMS5003;50735;52.060;1.248;2024-03-08T04:30:56;72;56;
63305;PMS5003;50735;52.060;1.248;2024-03-08T04:33:28;82;56;
63305;PMS5003;50735;52.060;1.248;2024-03-08T04:36:00;68;56;
63305;PMS5003;50735;52.060;1.248;2024-03-08T04:38:31;81;55;
63305;PMS5003;50735;52.060;1.248;2024-03-08T04:41:04;69;53;
63305;PMS5003;50735;52.060;1.248;2024-03-08T04:43:36;81;62;
63305;PMS5003;50735;52.060;1.248;2024-03-08T04:46:08;75;53;
63305;PMS5003;50735;52.060;1.248;2024-03-08T04:48:40;77;59;
63305;PMS5003;50735;52.060;1.248;2024-03-08T04:51:12;85;58;
63305;PMS5003;50735;52.060;1.248;2024-03-08T04:53:44;70;60;
63305;PMS5003;50735;52.060;1.248;2024-03-08T04:56:16;84;63;
63305;PMS5003;50735;52.060;1.248;2024-03-08T04:58:49;86;64;
63305;PMS5003;50735;52.060;1.248;2024-03-08T05:01:20;80;60;
63305;PMS5003;50735;52.060;1.248;2024-03-08T05:03:52;68;58;
63305;PMS5003;50735;52.060;1.248;2024-03-08T05:06:24;84;62;
63305;PMS5003;50735;52.060;1.248;2024-03-08T05:08:56;83;61;
63305;PMS5003;50735;52.060;1.248;2024-03-08T05:11:28;77;61;
63305;PMS5003;50735;52.060;1.248;2024-03-08T05:14:00;77;64;
63305;PMS5003;50735;52.060;1.248;2024-03-08T05:16:32;76;60;
63305;PMS5003;50735;52.060;1.248;2024-03-08T05:19:03;76;62;
63305;PMS5003;50735;52.060;1.248;2024-03-08T05:21:35;75;60;
63305;PMS5003;50735;52.060;1.248;2024-03-08T05:24:08;78;68;
63305;PMS5003;50735;52.060;1.248;2024-03-08T05:26:39;81;58;
63305;PMS5003;50735;52.060;1.248;2024-03-08T05:29:12;82;64;
63305;PMS5003;50735;52.060;1.248;2024-03-08T05:31:46;74;56;
63305;PMS5003;50735;52.060;1.248;2024-03-08T05:34:18;81;67;
63305;PMS5003;50735;52.060;1.248;2024-03-08T05:36:51;81;60;
63305;PMS5003;50735;52.060;1.248;2024-03-08T05:39:23;86;63;
63305;PMS5003;50735;52.060;1.248;2024-03-08T05:41:55;89;60;
63305;PMS5003;50735;52.060;1.248;2024-03-08T05:44:27;74;64;
63305;PMS5003;50735;52.060;1.248;2024-03-08T05:46:59;80;61;
63305;PMS5003;50735;52.060;1.248;2024-03-08T05:49:31;81;59;
63305;PMS5003;50735;52.060;1.248;2024-03-08T05:52:03;72;65;
63305;PMS5003;50735;52.060;1.248;2024-03-08T05:54:35;89;69;
63305;PMS5003;50735;52.060;1.248;2024-03-08T05:57:06;82;63;
63305;PMS5003;50735;52.060;1.248;2024-03-08T05:59:38;84;62;
63305;PMS5003;50735;52.060;1.248;2024-03-08T06:02:10;76;59;
63305;PMS5003;50735;52.060;1.248;2024-03-08T06:04:42;82;67;
63305;PMS5003;50735;52.060;1.248;2024-03-08T06:07:14;90;68;
63305;PMS5003;50735;52.060;1.248;2024-03-08T06:09:45;83;65;
63305;PMS5003;50735;52.060;1.248;2024-03-08T06:12:17;83;65;
63305;PMS5003;50735;52.060;1.248;2024-03-08T06:14:49;84;69;
63305;PMS5003;50735;52.060;1.248;2024-03-08T06:17:21;72;66;
63305;PMS5003;50735;52.060;1.248;2024-03-08T06:19:52;89;66;
63305;PMS5003;50735;52.060;1.248;2024-03-08T06:22:24;97;71;
63305;PMS5003;50735;52.060;1.248;2024-03-08T06:24:56;82;64;
63305;PMS5003;50735;52.060;1.248;2024-03-08T06:27:28;48;32;
63305;PMS5003;50735;52.060;1.248;2024-03-08T06:29:59;76;64;
63305;PMS5003;50735;52.060;1.248;2024-03-08T06:32:32;94;66;
63305;PMS5003;50735;52.060;1.248;2024-03-08T06:35:04;73;61;
63305;PMS5003;50735;52.060;1.248;2024-03-08T06:37:37;95;65;
63305;PMS5003;50735;52.060;1.248;2024-03-08T06:40:09;74;61;
63305;PMS5003;50735;52.060;1.248;2024-03-08T06:42:42;94;66;
63305;PMS5003;50735;52.060;1.248;2024-03-08T06:45:14;93;68;
63305;PMS5003;50735;52.060;1.248;2024-03-08T06:47:47;91;65;
63305;PMS5003;50735;52.060;1.248;2024-03-08T06:50:18;69;60;
63305;PMS5003;50735;52.060;1.248;2024-03-08T06:52:50;93;71;
63305;PMS5003;50735;52.060;1.248;2024-03-08T06:55:22;85;66;
63305;PMS5003;50735;52.060;1.248;2024-03-08T06:57:54;74;55;
63305;PMS5003;50735;52.060;1.248;2024-03-08T07:00:26;93;68;
63305;PMS5003;50735;52.060;1.248;2024-03-08T07:02:58;92;68;
63305;PMS5003;50735;52.060;1.248;2024-03-08T07:05:30;85;67;
63305;PMS5003;50735;52.060;1.248;2024-03-08T07:08:02;83;67;
63305;PMS5003;50735;52.060;1.248;2024-03-08T07:10:34;85;64;
63305;PMS5003;50735;52.060;1.248;2024-03-08T07:13:06;92;69;
63305;PMS5003;50735;52.060;1.248;2024-03-08T07:15:38;96;69;
63305;PMS5003;50735;52.060;1.248;2024-03-08T07:18:10;94;70;
63305;PMS5003;50735;52.060;1.248;2024-03-08T07:20:42;102;71;
63305;PMS5003;50735;52.060;1.248;2024-03-08T07:23:14;81;62;
63305;PMS5003;50735;52.060;1.248;2024-03-08T07:25:46;82;65;
63305;PMS5003;50735;52.060;1.248;2024-03-08T07:28:19;77;58;
63305;PMS5003;50735;52.060;1.248;2024-03-08T07:30:51;79;63;
63305;PMS5003;50735;52.060;1.248;2024-03-08T07:33:23;91;70;
63305;PMS5003;50735;52.060;1.248;2024-03-08T07:35:55;83;70;
63305;PMS5003;50735;52.060;1.248;2024-03-08T07:38:27;85;63;
63305;PMS5003;50735;52.060;1.248;2024-03-08T07:40:59;89;66;
63305;PMS5003;50735;52.060;1.248;2024-03-08T07:43:31;68;59;
63305;PMS5003;50735;52.060;1.248;2024-03-08T07:46:03;70;60;
63305;PMS5003;50735;52.060;1.248;2024-03-08T07:48:35;76;64;
63305;PMS5003;50735;52.060;1.248;2024-03-08T07:51:07;85;60;
63305;PMS5003;50735;52.060;1.248;2024-03-08T07:53:39;84;64;
63305;PMS5003;50735;52.060;1.248;2024-03-08T07:56:11;82;62;
63305;PMS5003;50735;52.060;1.248;2024-03-08T07:58:43;84;64;
63305;PMS5003;50735;52.060;1.248;2024-03-08T08:01:15;77;65;
63305;PMS5003;50735;52.060;1.248;2024-03-08T08:03:48;81;66;
63305;PMS5003;50735;52.060;1.248;2024-03-08T08:06:20;88;63;
63305;PMS5003;50735;52.060;1.248;2024-03-08T08:08:52;83;60;
63305;PMS5003;50735;52.060;1.248;2024-03-08T08:11:25;74;59;
63305;PMS5003;50735;52.060;1.248;2024-03-08T08:13:57;75;64;
63305;PMS5003;50735;52.060;1.248;2024-03-08T08:16:29;81;62;
63305;PMS5003;50735;52.060;1.248;2024-03-08T08:19:01;81;63;
63305;PMS5003;50735;52.060;1.248;2024-03-08T08:21:33;91;67;
63305;PMS5003;50735;52.060;1.248;2024-03-08T08:24:06;83;57;
63305;PMS5003;50735;52.060;1.248;2024-03-08T08:26:38;74;61;
63305;PMS5003;50735;52.060;1.248;2024-03-08T08:29:09;87;64;
63305;PMS5003;50735;52.060;1.248;2024-03-08T08:31:41;81;62;
63305;PMS5003;50735;52.060;1.248;2024-03-08T08:34:13;74;59;
63305;PMS5003;50735;52.060;1.248;2024-03-08T08:36:44;79;61;
63305;PMS5003;50735;52.060;1.248;2024-03-08T08:39:16;83;64;
63305;PMS5003;50735;52.060;1.248;2024-03-08T08:41:49;78;61;
63305;PMS5003;50735;52.060;1.248;2024-03-08T08:44:21;75;58;
63305;PMS5003;50735;52.060;1.248;2024-03-08T08:46:53;76;58;
63305;PMS5003;50735;52.060;1.248;2024-03-08T08:49:25;65;56;
63305;PMS5003;50735;52.060;1.248;2024-03-08T08:51:56;76;60;
63305;PMS5003;50735;52.060;1.248;2024-03-08T08:54:29;76;57;
63305;PMS5003;50735;52.060;1.248;2024-03-08T08:57:00;77;59;
63305;PMS5003;50735;52.060;1.248;2024-03-08T08:59:32;71;61;
63305;PMS5003;50735;52.060;1.248;2024-03-08T09:02:04;88;61;
63305;PMS5003;50735;52.060;1.248;2024-03-08T09:04:36;64;55;
63305;PMS5003;50735;52.060;1.248;2024-03-08T09:07:08;78;64;
63305;PMS5003;50735;52.060;1.248;2024-03-08T09:09:41;72;57;
63305;PMS5003;50735;52.060;1.248;2024-03-08T09:12:14;83;62;
63305;PMS5003;50735;52.060;1.248;2024-03-08T09:14:46;68;58;
63305;PMS5003;50735;52.060;1.248;2024-03-08T09:17:18;73;60;
63305;PMS5003;50735;52.060;1.248;2024-03-08T09:19:50;74;57;
63305;PMS5003;50735;52.060;1.248;2024-03-08T09:22:23;70;57;
63305;PMS5003;50735;52.060;1.248;2024-03-08T09:24:55;81;60;
63305;PMS5003;50735;52.060;1.248;2024-03-08T09:27:27;71;56;
63305;PMS5003;50735;52.060;1.248;2024-03-08T09:29:59;80;63;
63305;PMS5003;50735;52.060;1.248;2024-03-08T09:32:31;70;58;
63305;PMS5003;50735;52.060;1.248;2024-03-08T09:35:04;75;57;
63305;PMS5003;50735;52.060;1.248;2024-03-08T09:37:36;72;57;
63305;PMS5003;50735;52.060;1.248;2024-03-08T09:40:08;82;61;
63305;PMS5003;50735;52.060;1.248;2024-03-08T09:42:41;76;57;
63305;PMS5003;50735;52.060;1.248;2024-03-08T09:45:13;66;54;
63305;PMS5003;50735;52.060;1.248;2024-03-08T09:47:45;58;46;
63305;PMS5003;50735;52.060;1.248;2024-03-08T09:50:17;73;52;
63305;PMS5003;50735;52.060;1.248;2024-03-08T09:52:49;75;59;
63305;PMS5003;50735;52.060;1.248;2024-03-08T09:55:21;63;53;
63305;PMS5003;50735;52.060;1.248;2024-03-08T09:57:54;62;50;
63305;PMS5003;50735;52.060;1.248;2024-03-08T10:00:27;67;54;
63305;PMS5003;50735;52.060;1.248;2024-03-08T10:03:00;68;52;
63305;PMS5003;50735;52.060;1.248;2024-03-08T10:05:32;68;56;
63305;PMS5003;50735;52.060;1.248;2024-03-08T10:08:04;67;50;
63305;PMS5003;50735;52.060;1.248;2024-03-08T10:10:36;60;49;
63305;PMS5003;50735;52.060;1.248;2024-03-08T10:13:09;65;53;
63305;PMS5003;50735;52.060;1.248;2024-03-08T10:15:42;58;51;
63305;PMS5003;50735;52.060;1.248;2024-03-08T10:18:14;64;50;
63305;PMS5003;50735;52.060;1.248;2024-03-08T10:20:46;60;50;
63305;PMS5003;50735;52.060;1.248;2024-03-08T10:23:32;64;52;
63305;PMS5003;50735;52.060;1.248;2024-03-08T10:26:12;72;47;
63305;PMS5003;50735;52.060;1.248;2024-03-08T10:28:45;62;50;
63305;PMS5003;50735;52.060;1.248;2024-03-08T10:31:18;62;52;
63305;PMS5003;50735;52.060;1.248;2024-03-08T10:33:51;63;50;
63305;PMS5003;50735;52.060;1.248;2024-03-08T10:36:23;73;51;
63305;PMS5003;50735;52.060;1.248;2024-03-08T10:38:55;64;49;
63305;PMS5003;50735;52.060;1.248;2024-03-08T10:41:29;56;49;
63305;PMS5003;50735;52.060;1.248;2024-03-08T10:44:09;63;44;
63305;PMS5003;50735;52.060;1.248;2024-03-08T10:46:51;73;53;
63305;PMS5003;50735;52.060;1.248;2024-03-08T10:49:31;72;57;
63305;PMS5003;50735;52.060;1.248;2024-03-08T10:52:08;60;46;
63305;PMS5003;50735;52.060;1.248;2024-03-08T10:54:42;71;52;
63305;PMS5003;50735;52.060;1.248;2024-03-08T10:57:17;70;49;
63305;PMS5003;50735;52.060;1.248;2024-03-08T10:59:50;68;52;
63305;PMS5003;50735;52.060;1.248;2024-03-08T11:02:22;56;45;
63305;PMS5003;50735;52.060;1.248;2024-03-08T11:04:57;68;52;
63305;PMS5003;50735;52.060;1.248;2024-03-08T11:07:28;69;49;
63305;PMS5003;50735;52.060;1.248;2024-03-08T11:10:06;60;45;
63305;PMS5003;50735;52.060;1.248;2024-03-08T11:12:49;60;45;
63305;PMS5003;50735;52.060;1.248;2024-03-08T11:15:22;56;45;
63305;PMS5003;50735;52.060;1.248;2024-03-08T11:17:58;59;48;
63305;PMS5003;50735;52.060;1.248;2024-03-08T11:20:30;56;40;
63305;PMS5003;50735;52.060;1.248;2024-03-08T11:23:03;59;43;
63305;PMS5003;50735;52.060;1.248;2024-03-08T11:25:36;51;41;
63305;PMS5003;50735;52.060;1.248;2024-03-08T11:28:10;59;43;
63305;PMS5003;50735;52.060;1.248;2024-03-08T11:30:45;56;45;
63305;PMS5003;50735;52.060;1.248;2024-03-08T11:33:18;47;45;
63305;PMS5003;50735;52.060;1.248;2024-03-08T11:35:50;56;43;
63305;PMS5003;50735;52.060;1.248;2024-03-08T11:38:22;61;44;
63305;PMS5003;50735;52.060;1.248;2024-03-08T11:40:53;50;42;
63305;PMS5003;50735;52.060;1.248;2024-03-08T11:43:28;64;44;
63305;PMS5003;50735;52.060;1.248;2024-03-08T11:46:07;58;46;
63305;PMS5003;50735;52.060;1.248;2024-03-08T11:48:39;55;42;
63305;PMS5003;50735;52.060;1.248;2024-03-08T11:51:11;57;45;
63305;PMS5003;50735;52.060;1.248;2024-03-08T11:53:43;62;44;
63305;PMS5003;50735;52.060;1.248;2024-03-08T11:56:16;60;45;
63305;PMS5003;50735;52.060;1.248;2024-03-08T11:58:52;54;46;
63305;PMS5003;50735;52.060;1.248;2024-03-08T12:01:25;62;46;
63305;PMS5003;50735;52.060;1.248;2024-03-08T12:03:57;60;43;
63305;PMS5003;50735;52.060;1.248;2024-03-08T12:06:36;53;49;
63305;PMS5003;50735;52.060;1.248;2024-03-08T12:06:38;53;48;
63305;PMS5003;50735;52.060;1.248;2024-03-08T12:09:11;60;50;
63305;PMS5003;50735;52.060;1.248;2024-03-08T12:11:44;55;48;
63305;PMS5003;50735;52.060;1.248;2024-03-08T12:14:19;48;47;
63305;PMS5003;50735;52.060;1.248;2024-03-08T12:16:51;71;48;
63305;PMS5003;50735;52.060;1.248;2024-03-08T12:19:23;67;49;
63305;PMS5003;50735;52.060;1.248;2024-03-08T12:21:55;61;51;
63305;PMS5003;50735;52.060;1.248;2024-03-08T12:24:27;63;45;
63305;PMS5003;50735;52.060;1.248;2024-03-08T12:26:59;56;44;
63305;PMS5003;50735;52.060;1.248;2024-03-08T12:29:31;62;49;
63305;PMS5003;50735;52.060;1.248;2024-03-08T12:32:04;59;48;
63305;PMS5003;50735;52.060;1.248;2024-03-08T12:34:36;50;44;
63305;PMS5003;50735;52.060;1.248;2024-03-08T12:37:08;66;50;
63305;PMS5003;50735;52.060;1.248;2024-03-08T12:39:40;62;50;
63305;PMS5003;50735;52.060;1.248;2024-03-08T12:42:12;60;47;
63305;PMS5003;50735;52.060;1.248;2024-03-08T12:44:44;58;43;
63305;PMS5003;50735;52.060;1.248;2024-03-08T12:47:17;64;48;
63305;PMS5003;50735;52.060;1.248;2024-03-08T12:49:49;54;49;
63305;PMS5003;50735;52.060;1.248;2024-03-08T12:52:21;68;49;
63305;PMS5003;50735;52.060;1.248;2024-03-08T12:54:52;57;48;
63305;PMS5003;50735;52.060;1.248;2024-03-08T12:57:25;64;50;
63305;PMS5003;50735;52.060;1.248;2024-03-08T12:59:57;60;51;
63305;PMS5003;50735;52.060;1.248;2024-03-08T13:02:29;53;47;
63305;PMS5003;50735;52.060;1.248;2024-03-08T13:05:01;50;45;
63305;PMS5003;50735;52.060;1.248;2024-03-08T13:07:33;57;44;
63305;PMS5003;50735;52.060;1.248;2024-03-08T13:10:06;57;44;
63305;PMS5003;50735;52.060;1.248;2024-03-08T13:12:39;68;46;
63305;PMS5003;50735;52.060;1.248;2024-03-08T13:15:11;63;47;
63305;PMS5003;50735;52.060;1.248;2024-03-08T13:17:44;69;48;
63305;PMS5003;50735;52.060;1.248;2024-03-08T13:20:16;49;45;
63305;PMS5003;50735;52.060;1.248;2024-03-08T13:22:48;55;47;
63305;PMS5003;50735;52.060;1.248;2024-03-08T13:25:20;67;47;
63305;PMS5003;50735;52.060;1.248;2024-03-08T13:27:53;58;48;
63305;PMS5003;50735;52.060;1.248;2024-03-08T13:30:25;57;46;
63305;PMS5003;50735;52.060;1.248;2024-03-08T13:32:57;60;46;
63305;PMS5003;50735;52.060;1.248;2024-03-08T13:35:29;68;41;
63305;PMS5003;50735;52.060;1.248;2024-03-08T13:38:01;60;46;
63305;PMS5003;50735;52.060;1.248;2024-03-08T13:40:32;61;45;
63305;PMS5003;50735;52.060;1.248;2024-03-08T13:43:04;64;48;
63305;PMS5003;50735;52.060;1.248;2024-03-08T13:45:36;56;48;
63305;PMS5003;50735;52.060;1.248;2024-03-08T13:48:08;53;50;
63305;PMS5003;50735;52.060;1.248;2024-03-08T13:50:39;62;45;
63305;PMS5003;50735;52.060;1.248;2024-03-08T13:53:11;58;46;
63305;PMS5003;50735;52.060;1.248;2024-03-08T13:55:43;67;51;
63305;PMS5003;50735;52.060;1.248;2024-03-08T13:58:15;65;47;
63305;PMS5003;50735;52.060;1.248;2024-03-08T14:00:47;56;46;
63305;PMS5003;50735;52.060;1.248;2024-03-08T14:03:19;52;46;
63305;PMS5003;50735;52.060;1.248;2024-03-08T14:05:50;65;48;
63305;PMS5003;50735;52.060;1.248;2024-03-08T14:08:22;58;42;
63305;PMS5003;50735;52.060;1.248;2024-03-08T14:10:54;53;47;
63305;PMS5003;50735;52.060;1.248;2024-03-08T14:13:26;62;46;
63305;PMS5003;50735;52.060;1.248;2024-03-08T14:15:58;65;47;
63305;PMS5003;50735;52.060;1.248;2024-03-08T14:18:30;48;44;
63305;PMS5003;50735;52.060;1.248;2024-03-08T14:21:02;53;49;
63305;PMS5003;50735;52.060;1.248;2024-03-08T14:23:34;69;51;
63305;PMS5003;50735;52.060;1.248;2024-03-08T14:26:07;66;53;
63305;PMS5003;50735;52.060;1.248;2024-03-08T14:28:39;78;54;
63305;PMS5003;50735;52.060;1.248;2024-03-08T14:31:10;61;47;
63305;PMS5003;50735;52.060;1.248;2024-03-08T14:33:44;62;49;
63305;PMS5003;50735;52.060;1.248;2024-03-08T14:36:15;58;50;
63305;PMS5003;50735;52.060;1.248;2024-03-08T14:38:47;56;49;
63305;PMS5003;50735;52.060;1.248;2024-03-08T14:41:20;66;54;
63305;PMS5003;50735;52.060;1.248;2024-03-08T14:43:52;61;48;
63305;PMS5003;50735;52.060;1.248;2024-03-08T14:46:23;75;57;
63305;PMS5003;50735;52.060;1.248;2024-03-08T14:48:55;59;51;
63305;PMS5003;50735;52.060;1.248;2024-03-08T14:51:27;68;52;
63305;PMS5003;50735;52.060;1.248;2024-03-08T14:53:59;68;54;
63305;PMS5003;50735;52.060;1.248;2024-03-08T14:56:31;66;48;
63305;PMS5003;50735;52.060;1.248;2024-03-08T14:59:03;66;52;
63305;PMS5003;50735;52.060;1.248;2024-03-08T15:01:36;64;53;
63305;PMS5003;50735;52.060;1.248;2024-03-08T15:04:09;69;48;
63305;PMS5003;50735;52.060;1.248;2024-03-08T15:06:41;60;51;
63305;PMS5003;50735;52.060;1.248;2024-03-08T15:09:12;67;47;
63305;PMS5003;50735;52.060;1.248;2024-03-08T15:11:44;79;53;
63305;PMS5003;50735;52.060;1.248;2024-03-08T15:14:16;60;52;
63305;PMS5003;50735;52.060;1.248;2024-03-08T15:16:48;68;50;
63305;PMS5003;50735;52.060;1.248;2024-03-08T15:19:20;71;52;
63305;PMS5003;50735;52.060;1.248;2024-03-08T15:21:53;64;50;
63305;PMS5003;50735;52.060;1.248;2024-03-08T15:24:25;66;46;
63305;PMS5003;50735;52.060;1.248;2024-03-08T15:26:57;57;50;
63305;PMS5003;50735;52.060;1.248;2024-03-08T15:29:29;63;55;
63305;PMS5003;50735;52.060;1.248;2024-03-08T15:32:01;67;51;
63305;PMS5003;50735;52.060;1.248;2024-03-08T15:34:32;66;52;
63305;PMS5003;50735;52.060;1.248;2024-03-08T15:37:04;63;49;
63305;PMS5003;50735;52.060;1.248;2024-03-08T15:39:36;58;52;
63305;PMS5003;50735;52.060;1.248;2024-03-08T15:42:08;61;47;
63305;PMS5003;50735;52.060;1.248;2024-03-08T15:44:40;47;43;
63305;PMS5003;50735;52.060;1.248;2024-03-08T15:47:12;65;49;
63305;PMS5003;50735;52.060;1.248;2024-03-08T15:49:44;70;49;
63305;PMS5003;50735;52.060;1.248;2024-03-08T15:52:16;58;46;
63305;PMS5003;50735;52.060;1.248;2024-03-08T15:54:48;53;47;
63305;PMS5003;50735;52.060;1.248;2024-03-08T15:57:20;52;44;
63305;PMS5003;50735;52.060;1.248;2024-03-08T15:59:52;64;45;
63305;PMS5003;50735;52.060;1.248;2024-03-08T16:02:24;70;52;
63305;PMS5003;50735;52.060;1.248;2024-03-08T16:04:56;58;45;
63305;PMS5003;50735;52.060;1.248;2024-03-08T16:07:28;62;47;
63305;PMS5003;50735;52.060;1.248;2024-03-08T16:09:59;60;50;
63305;PMS5003;50735;52.060;1.248;2024-03-08T16:12:34;54;41;
63305;PMS5003;50735;52.060;1.248;2024-03-08T16:15:08;56;44;
63305;PMS5003;50735;52.060;1.248;2024-03-08T16:17:40;67;45;
63305;PMS5003;50735;52.060;1.248;2024-03-08T16:20:12;58;43;
63305;PMS5003;50735;52.060;1.248;2024-03-08T16:22:44;55;45;
63305;PMS5003;50735;52.060;1.248;2024-03-08T16:25:16;57;46;
63305;PMS5003;50735;52.060;1.248;2024-03-08T16:27:48;54;38;
63305;PMS5003;50735;52.060;1.248;2024-03-08T16:30:20;59;50;
63305;PMS5003;50735;52.060;1.248;2024-03-08T16:32:52;60;47;
63305;PMS5003;50735;52.060;1.248;2024-03-08T16:35:23;54;49;
63305;PMS5003;50735;52.060;1.248;2024-03-08T16:37:55;63;48;
63305;PMS5003;50735;52.060;1.248;2024-03-08T16:40:27;68;50;
63305;PMS5003;50735;52.060;1.248;2024-03-08T16:42:59;52;47;
63305;PMS5003;50735;52.060;1.248;2024-03-08T16:45:31;67;50;
63305;PMS5003;50735;52.060;1.248;2024-03-08T16:48:03;62;48;
63305;PMS5003;50735;52.060;1.248;2024-03-08T16:50:35;52;46;